createdAt,value
2023-05-14T00:01:59.313Z,23.00
2023-05-14T00:04:26.826Z,27.30
2023-05-14T00:06:54.271Z,27.60
2023-05-14T00:09:21.723Z,26.00
2023-05-14T00:11:49.057Z,28.50
2023-05-14T00:14:16.439Z,26.30
2023-05-14T00:16:43.826Z,30.80
2023-05-14T00:19:11.305Z,23.60
2023-05-14T00:21:38.810Z,26.10
2023-05-14T00:24:06.281Z,24.20
2023-05-14T00:26:33.722Z,27.20
2023-05-14T00:29:01.598Z,26.40
2023-05-14T00:31:29.024Z,29.10
2023-05-14T00:33:56.613Z,33.40
2023-05-14T00:36:24.006Z,28.80
2023-05-14T00:38:51.481Z,28.30
2023-05-14T00:41:18.868Z,26.80
2023-05-14T00:43:46.190Z,33.10
2023-05-14T00:46:14.594Z,31.00
2023-05-14T00:48:42.236Z,26.90
2023-05-14T00:51:09.847Z,30.10
2023-05-14T00:53:37.921Z,29.20
2023-05-14T00:56:06.961Z,29.80
2023-05-14T00:58:34.592Z,31.80
2023-05-14T01:01:02.676Z,28.70
2023-05-14T01:03:31.502Z,31.70
2023-05-14T01:06:15.841Z,30.90
2023-05-14T01:09:14.644Z,29.60
2023-05-14T01:12:10.069Z,28.70
2023-05-14T01:15:02.810Z,29.70
2023-05-14T01:17:33.915Z,30.10
2023-05-14T01:20:02.037Z,31.90
2023-05-14T01:22:29.536Z,31.50
2023-05-14T01:24:56.847Z,28.50
2023-05-14T01:27:40.421Z,30.10
2023-05-14T01:30:25.434Z,33.40
2023-05-14T01:33:00.057Z,28.80
2023-05-14T01:35:30.136Z,32.20
2023-05-14T01:38:01.586Z,30.60
2023-05-14T01:40:31.972Z,31.70
2023-05-14T01:43:00.592Z,35.20
2023-05-14T01:45:27.974Z,35.70
2023-05-14T01:47:55.362Z,33.10
2023-05-14T01:50:23.160Z,31.70
2023-05-14T01:52:53.432Z,36.30
2023-05-14T01:55:21.109Z,32.90
2023-05-14T01:57:48.545Z,32.40
2023-05-14T02:00:16.267Z,34.30
2023-05-14T02:02:43.874Z,32.70
2023-05-14T02:05:12.608Z,38.00
2023-05-14T02:07:40.633Z,34.40
2023-05-14T02:10:09.288Z,31.20
2023-05-14T02:12:37.232Z,34.00
2023-05-14T02:15:05.857Z,35.70
2023-05-14T02:17:33.188Z,37.20
2023-05-14T02:20:00.888Z,37.30
2023-05-14T02:22:28.243Z,31.60
2023-05-14T02:24:56.183Z,31.20
2023-05-14T02:27:23.525Z,33.30
2023-05-14T02:29:50.897Z,32.60
2023-05-14T02:32:18.290Z,33.20
2023-05-14T02:34:45.806Z,32.40
2023-05-14T02:37:13.231Z,29.90
2023-05-14T02:39:40.631Z,33.70
2023-05-14T02:42:08.298Z,31.10
2023-05-14T02:44:35.757Z,38.10
2023-05-14T02:47:03.261Z,32.00
2023-05-14T02:49:30.784Z,31.30
2023-05-14T02:51:58.438Z,32.60
2023-05-14T02:54:25.766Z,35.40
2023-05-14T02:56:53.238Z,32.20
2023-05-14T02:59:20.708Z,27.70
2023-05-14T03:01:48.717Z,31.00
2023-05-14T03:04:16.632Z,36.90
2023-05-14T03:06:44.093Z,32.00
2023-05-14T03:09:11.741Z,31.90
2023-05-14T03:11:39.082Z,32.30
2023-05-14T03:14:06.464Z,32.50
2023-05-14T03:16:33.819Z,30.60
2023-05-14T03:19:01.342Z,32.50
2023-05-14T03:21:28.762Z,31.20
2023-05-14T03:23:56.080Z,32.50
2023-05-14T03:26:23.444Z,33.10
2023-05-14T03:28:51.066Z,34.40
2023-05-14T03:31:18.850Z,37.30
2023-05-14T03:33:46.548Z,36.90
2023-05-14T03:36:13.973Z,32.40
2023-05-14T03:38:41.447Z,36.80
2023-05-14T03:41:09.089Z,33.80
2023-05-14T03:43:36.759Z,33.60
2023-05-14T03:46:04.165Z,34.00
2023-05-14T03:48:31.565Z,32.20
2023-05-14T03:50:59.056Z,34.80
2023-05-14T03:53:26.520Z,37.30
2023-05-14T03:55:53.970Z,40.10
2023-05-14T03:58:21.539Z,36.60
2023-05-14T04:00:49.027Z,41.30
2023-05-14T04:03:16.704Z,37.70
2023-05-14T04:05:44.365Z,37.20
2023-05-14T04:08:11.731Z,38.00
2023-05-14T04:10:39.190Z,36.90
2023-05-14T04:13:06.641Z,35.10
2023-05-14T04:15:35.734Z,38.90
2023-05-14T04:18:03.198Z,43.00
2023-05-14T04:20:30.818Z,37.80
2023-05-14T04:22:58.208Z,37.00
2023-05-14T04:25:25.869Z,37.70
2023-05-14T04:27:53.178Z,37.10
2023-05-14T04:30:21.383Z,41.40
2023-05-14T04:32:48.948Z,38.80
2023-05-14T04:35:16.293Z,43.20
2023-05-14T04:37:43.664Z,39.30
2023-05-14T04:40:12.525Z,38.40
2023-05-14T04:42:39.889Z,39.10
2023-05-14T04:45:08.905Z,36.60
2023-05-14T04:47:36.361Z,37.10
2023-05-14T04:50:04.722Z,40.20
2023-05-14T04:52:33.362Z,39.50
2023-05-14T04:55:01.229Z,38.20
2023-05-14T04:57:28.554Z,42.60
2023-05-14T04:59:55.958Z,38.70
2023-05-14T05:02:23.410Z,39.50
2023-05-14T05:04:50.733Z,39.30
2023-05-14T05:07:18.140Z,41.50
2023-05-14T05:09:45.718Z,41.70
2023-05-14T05:12:13.177Z,44.30
2023-05-14T05:14:40.663Z,41.40
2023-05-14T05:17:08.564Z,42.10
2023-05-14T05:19:43.027Z,44.20
2023-05-14T05:22:11.830Z,38.80
2023-05-14T05:24:39.327Z,42.40
2023-05-14T05:27:06.878Z,44.10
2023-05-14T05:29:36.513Z,43.20
2023-05-14T05:32:04.370Z,41.60
2023-05-14T05:34:31.842Z,43.00
2023-05-14T05:36:59.197Z,42.30
2023-05-14T05:39:26.584Z,42.40
2023-05-14T05:41:54.664Z,38.80
2023-05-14T05:44:21.967Z,45.00
2023-05-14T05:46:51.228Z,41.10
2023-05-14T05:49:18.667Z,45.20
2023-05-14T05:51:46.096Z,39.80
2023-05-14T05:54:13.407Z,39.60
2023-05-14T05:56:41.111Z,43.30
2023-05-14T05:59:08.459Z,45.00
2023-05-14T06:01:36.221Z,46.40
2023-05-14T06:04:05.646Z,46.50
2023-05-14T06:06:33.247Z,45.60
2023-05-14T06:09:01.959Z,44.10
2023-05-14T06:11:29.336Z,50.10
2023-05-14T06:13:56.785Z,43.00
2023-05-14T06:16:24.534Z,42.40
2023-05-14T06:18:52.975Z,44.20
2023-05-14T06:21:20.587Z,43.30
2023-05-14T06:23:48.062Z,47.20
2023-05-14T06:26:15.441Z,39.70
2023-05-14T06:28:42.859Z,44.10
2023-05-14T06:31:10.528Z,43.10
2023-05-14T06:33:37.891Z,40.20
2023-05-14T06:36:08.027Z,41.00
2023-05-14T06:38:35.549Z,39.50
2023-05-14T06:41:03.419Z,37.40
2023-05-14T06:43:30.827Z,38.00
2023-05-14T06:45:58.334Z,36.80
2023-05-14T06:48:28.081Z,33.70
2023-05-14T06:50:56.418Z,38.30
2023-05-14T06:53:23.807Z,38.90
2023-05-14T06:55:51.412Z,37.60
2023-05-14T06:58:18.769Z,37.50
2023-05-14T07:00:46.125Z,34.70
2023-05-14T07:03:13.616Z,41.30
2023-05-14T07:05:41.388Z,41.80
2023-05-14T07:08:08.928Z,40.50
2023-05-14T07:10:36.391Z,40.50
2023-05-14T07:13:03.728Z,41.60
2023-05-14T07:15:31.227Z,45.90
2023-05-14T07:17:58.811Z,37.90
2023-05-14T07:20:26.611Z,39.80
2023-05-14T07:22:54.407Z,42.80
2023-05-14T07:25:22.750Z,37.00
2023-05-14T07:27:50.168Z,37.00
2023-05-14T07:30:17.558Z,40.30
2023-05-14T07:32:45.449Z,41.00
2023-05-14T07:35:13.212Z,38.40
2023-05-14T07:37:40.669Z,42.30
2023-05-14T07:40:09.191Z,40.90
2023-05-14T07:42:37.438Z,37.70
2023-05-14T07:45:06.586Z,39.40
2023-05-14T07:47:34.037Z,41.00
2023-05-14T07:50:01.636Z,41.00
2023-05-14T07:52:29.266Z,41.30
2023-05-14T07:54:56.652Z,38.10
2023-05-14T07:57:24.018Z,40.60
2023-05-14T07:59:51.456Z,41.20
2023-05-14T08:02:19.068Z,41.10
2023-05-14T08:04:46.532Z,41.30
2023-05-14T08:07:13.924Z,47.00
2023-05-14T08:09:41.226Z,44.60
2023-05-14T08:12:08.951Z,46.70
2023-05-14T08:14:36.376Z,48.20
2023-05-14T08:17:04.446Z,51.40
2023-05-14T08:19:32.604Z,47.10
2023-05-14T08:22:00.002Z,45.50
2023-05-14T08:24:27.384Z,45.80
2023-05-14T08:26:56.045Z,41.90
2023-05-14T08:29:23.701Z,44.20
2023-05-14T08:31:51.359Z,39.80
2023-05-14T08:34:18.677Z,43.40
2023-05-14T08:36:46.052Z,42.70
2023-05-14T08:39:13.817Z,42.60
2023-05-14T08:41:41.502Z,44.00
2023-05-14T08:44:15.709Z,45.50
2023-05-14T08:46:43.166Z,49.00
2023-05-14T08:49:43.364Z,47.10
2023-05-14T08:52:11.555Z,49.50
2023-05-14T08:54:40.695Z,47.20
2023-05-14T08:57:11.718Z,47.10
2023-05-14T08:59:39.209Z,45.00
2023-05-14T09:02:09.015Z,47.80
2023-05-14T09:04:37.114Z,46.10
2023-05-14T09:07:06.811Z,44.80
2023-05-14T09:09:35.021Z,44.30
2023-05-14T09:12:02.352Z,47.10
2023-05-14T09:14:29.657Z,42.90
2023-05-14T09:16:57.237Z,44.20
2023-05-14T09:19:26.466Z,41.10
2023-05-14T09:21:59.062Z,41.90
2023-05-14T09:24:30.686Z,41.20
2023-05-14T09:26:58.762Z,42.30
2023-05-14T09:29:29.843Z,40.30
2023-05-14T09:31:58.843Z,42.70
2023-05-14T09:34:35.157Z,41.10
2023-05-14T09:37:06.048Z,37.70
2023-05-14T09:39:38.418Z,43.10
2023-05-14T09:42:06.618Z,39.00
2023-05-14T09:44:36.269Z,39.30
2023-05-14T09:47:04.458Z,38.10
2023-05-14T09:49:31.950Z,36.80
2023-05-14T09:51:59.357Z,39.10
2023-05-14T09:54:27.420Z,38.20
2023-05-14T09:56:55.857Z,38.00
2023-05-14T09:59:23.473Z,35.80
2023-05-14T10:01:52.515Z,38.50
2023-05-14T10:04:21.430Z,36.20
2023-05-14T10:06:53.031Z,39.20
2023-05-14T10:09:26.388Z,35.50
2023-05-14T10:11:58.914Z,34.50
2023-05-14T10:14:39.520Z,36.40
2023-05-14T10:17:08.143Z,40.00
2023-05-14T10:19:37.500Z,38.30
2023-05-14T10:22:08.308Z,33.80
2023-05-14T10:24:38.770Z,36.30
2023-05-14T10:27:06.752Z,34.40
2023-05-14T10:29:37.425Z,37.70
2023-05-14T10:32:07.575Z,38.30
2023-05-14T10:34:41.063Z,32.00
2023-05-14T10:37:12.521Z,34.90
2023-05-14T10:39:58.093Z,34.10
2023-05-14T10:42:35.849Z,38.40
2023-05-14T10:45:08.311Z,34.10
2023-05-14T10:47:42.344Z,32.50
2023-05-14T10:50:15.841Z,37.20
2023-05-14T10:52:45.259Z,32.10
2023-05-14T10:55:15.113Z,33.30
2023-05-14T10:57:45.719Z,30.70
2023-05-14T11:00:15.114Z,34.20
2023-05-14T11:02:47.006Z,33.00
2023-05-14T11:05:17.800Z,32.60
2023-05-14T11:07:48.814Z,34.90
2023-05-14T11:10:18.952Z,30.70
2023-05-14T11:12:49.342Z,38.40
2023-05-14T11:15:21.725Z,34.00
2023-05-14T11:17:50.705Z,32.40
2023-05-14T11:20:19.933Z,32.60
2023-05-14T11:22:51.734Z,33.50
2023-05-14T11:25:19.287Z,32.10
2023-05-14T11:27:48.242Z,41.20
2023-05-14T11:30:20.476Z,41.10
2023-05-14T11:32:50.126Z,36.40
2023-05-14T11:35:18.434Z,32.40
2023-05-14T11:37:52.798Z,33.90
2023-05-14T11:40:20.729Z,31.90
2023-05-14T11:42:53.036Z,30.50
2023-05-14T11:45:29.732Z,33.50
2023-05-14T11:47:57.178Z,31.00
2023-05-14T11:50:25.050Z,31.80
2023-05-14T11:52:57.430Z,30.10
2023-05-14T11:55:24.998Z,28.60
2023-05-14T11:57:52.687Z,25.70
2023-05-14T12:00:22.249Z,28.80
2023-05-14T12:02:50.238Z,28.10
2023-05-14T12:05:18.978Z,30.30
2023-05-14T12:07:47.734Z,28.00
2023-05-14T12:10:15.158Z,26.20
2023-05-14T12:12:47.280Z,26.80
2023-05-14T12:15:17.113Z,24.80
2023-05-14T12:17:51.930Z,28.00
2023-05-14T12:20:19.612Z,25.60
2023-05-14T12:22:47.147Z,24.50
2023-05-14T12:25:14.510Z,23.00
2023-05-14T12:27:45.138Z,24.40
2023-05-14T12:32:44.783Z,27.80
2023-05-14T12:35:12.263Z,25.00
2023-05-14T12:37:40.028Z,24.10
2023-05-14T12:40:11.617Z,25.30
2023-05-14T12:42:38.987Z,22.20
2023-05-14T12:45:08.730Z,24.30
2023-05-14T12:47:37.309Z,23.70
2023-05-14T12:50:06.340Z,24.80
2023-05-14T12:52:38.541Z,25.70
2023-05-14T12:55:09.366Z,22.60
2023-05-14T12:57:39.312Z,24.30
2023-05-14T13:00:14.139Z,21.90
2023-05-14T13:02:43.640Z,24.30
2023-05-14T13:05:12.507Z,20.50
2023-05-14T13:07:40.478Z,19.10
2023-05-14T13:10:08.903Z,19.90
2023-05-14T13:12:36.233Z,23.20
2023-05-14T13:15:04.000Z,21.70
2023-05-14T13:17:31.423Z,26.40
2023-05-14T13:19:58.987Z,22.30
2023-05-14T13:22:26.436Z,22.40
2023-05-14T13:24:53.761Z,21.00
2023-05-14T13:27:21.155Z,21.70
2023-05-14T13:29:48.496Z,18.60
2023-05-14T13:32:15.861Z,18.80
2023-05-14T13:34:44.133Z,20.90
2023-05-14T13:37:11.609Z,21.00
2023-05-14T13:39:40.899Z,19.20
2023-05-14T13:42:08.629Z,18.90
2023-05-14T13:44:36.293Z,17.70
2023-05-14T13:47:04.344Z,18.50
2023-05-14T13:49:31.686Z,19.40
2023-05-14T13:51:59.051Z,19.50
2023-05-14T13:54:26.668Z,21.40
2023-05-14T13:56:54.013Z,20.40
2023-05-14T13:59:21.471Z,19.80
2023-05-14T14:01:50.161Z,19.60
2023-05-14T14:04:17.910Z,24.10
2023-05-14T14:06:45.473Z,18.50
2023-05-14T14:09:13.884Z,18.20
2023-05-14T14:11:41.654Z,19.60
2023-05-14T14:14:09.094Z,21.30
2023-05-14T14:16:36.535Z,17.20
2023-05-14T14:19:04.212Z,18.30
2023-05-14T14:21:31.829Z,20.50
2023-05-14T14:23:59.385Z,19.60
2023-05-14T14:26:28.071Z,17.60
2023-05-14T14:28:55.570Z,19.00
2023-05-14T14:31:23.024Z,17.00
2023-05-14T14:33:50.654Z,18.70
2023-05-14T14:36:17.959Z,17.60
2023-05-14T14:38:45.396Z,16.50
2023-05-14T14:41:12.841Z,22.60
2023-05-14T14:43:41.427Z,14.70
2023-05-14T14:46:09.819Z,16.00
2023-05-14T14:48:37.940Z,15.40
2023-05-14T14:51:09.767Z,15.50
2023-05-14T14:53:37.485Z,16.80
2023-05-14T14:56:06.067Z,13.70
2023-05-14T14:58:33.469Z,14.30
2023-05-14T15:01:01.506Z,11.80
2023-05-14T15:03:29.340Z,14.30
2023-05-14T15:05:57.024Z,15.20
2023-05-14T15:08:28.671Z,11.60
2023-05-14T15:10:57.077Z,11.70
2023-05-14T15:13:25.105Z,16.20
2023-05-14T15:15:52.936Z,11.20
2023-05-14T15:18:21.040Z,11.00
2023-05-14T15:20:48.735Z,12.30
2023-05-14T15:23:16.388Z,12.90
2023-05-14T15:25:44.228Z,11.50
2023-05-14T15:28:11.706Z,12.70
2023-05-14T15:30:39.654Z,11.00
2023-05-14T15:33:11.099Z,10.50
2023-05-14T15:35:39.212Z,9.80
2023-05-14T15:38:07.056Z,9.70
2023-05-14T15:40:35.224Z,10.80
2023-05-14T15:43:02.944Z,8.50
2023-05-14T15:45:30.359Z,8.70
2023-05-14T15:47:57.790Z,9.30
2023-05-14T15:50:27.393Z,9.90
2023-05-14T15:52:54.981Z,10.10
2023-05-14T15:55:22.438Z,8.50
2023-05-14T15:57:49.816Z,10.60
2023-05-14T16:00:17.952Z,10.50
2023-05-14T16:02:45.474Z,11.20
2023-05-14T16:05:14.580Z,10.20
2023-05-14T16:07:42.984Z,9.50
2023-05-14T16:10:11.089Z,8.80
2023-05-14T16:12:38.554Z,9.90
2023-05-14T16:15:08.297Z,10.90
2023-05-14T16:17:35.950Z,11.90
2023-05-14T16:20:05.094Z,12.50
2023-05-14T16:22:34.677Z,12.70
2023-05-14T16:25:04.284Z,10.60
2023-05-14T16:27:31.964Z,11.50
2023-05-14T16:29:59.294Z,10.40
2023-05-14T16:32:27.748Z,9.70
2023-05-14T16:34:56.591Z,11.10
2023-05-14T16:37:24.092Z,8.30
2023-05-14T16:39:51.449Z,8.90
2023-05-14T16:42:18.925Z,10.20
2023-05-14T16:44:46.233Z,11.60
2023-05-14T16:47:13.586Z,8.40
2023-05-14T16:49:40.985Z,9.40
2023-05-14T16:52:08.456Z,8.20
2023-05-14T16:54:36.567Z,9.80
2023-05-14T16:57:06.014Z,8.70
2023-05-14T16:59:33.561Z,13.70
2023-05-14T17:02:01.265Z,7.30
2023-05-14T17:04:28.960Z,8.30
2023-05-14T17:06:57.540Z,11.30
2023-05-14T17:09:24.925Z,6.80
2023-05-14T17:11:52.407Z,9.30
2023-05-14T17:14:19.762Z,9.40
2023-05-14T17:16:47.137Z,8.10
2023-05-14T17:19:14.665Z,9.40
2023-05-14T17:21:42.155Z,12.30
2023-05-14T17:24:09.704Z,8.80
2023-05-14T17:26:40.388Z,8.30
2023-05-14T17:29:08.171Z,6.90
2023-05-14T17:31:35.980Z,7.40
2023-05-14T17:34:03.521Z,9.70
2023-05-14T17:36:32.425Z,8.70
2023-05-14T17:38:59.861Z,8.70
2023-05-14T17:41:27.257Z,9.90
2023-05-14T17:43:54.621Z,10.20
2023-05-14T17:46:22.143Z,14.50
2023-05-14T17:48:49.693Z,9.30
2023-05-14T17:51:17.067Z,9.00
2023-05-14T17:53:44.442Z,9.80
2023-05-14T17:56:12.243Z,7.90
2023-05-14T17:58:39.651Z,10.20
2023-05-14T18:01:07.154Z,9.00
2023-05-14T18:03:34.780Z,7.00
2023-05-14T18:06:02.236Z,8.80
2023-05-14T18:08:29.565Z,7.80
2023-05-14T18:10:58.148Z,9.30
2023-05-14T18:13:25.599Z,10.30
2023-05-14T18:15:54.407Z,11.40
2023-05-14T18:18:23.684Z,11.10
2023-05-14T18:20:51.986Z,9.00
2023-05-14T18:23:19.462Z,10.30
2023-05-14T18:25:48.072Z,9.20
2023-05-14T18:28:15.775Z,9.30
2023-05-14T18:30:43.861Z,11.70
2023-05-14T18:33:11.584Z,10.00
2023-05-14T18:35:39.321Z,9.40
2023-05-14T18:38:08.161Z,10.20
2023-05-14T18:40:35.609Z,8.80
2023-05-14T18:43:03.036Z,9.80
2023-05-14T18:45:30.505Z,9.00
2023-05-14T18:47:57.911Z,8.10
2023-05-14T18:50:25.786Z,9.70
2023-05-14T18:52:53.161Z,9.90
2023-05-14T18:55:20.581Z,9.90
2023-05-14T18:57:47.959Z,10.20
2023-05-14T19:00:16.158Z,10.40
2023-05-14T19:02:43.583Z,8.80
2023-05-14T19:05:11.063Z,12.30
2023-05-14T19:07:38.719Z,10.80
2023-05-14T19:10:07.493Z,10.50
2023-05-14T19:12:34.923Z,11.00
2023-05-14T19:15:02.578Z,9.80
2023-05-14T19:17:32.789Z,9.00
2023-05-14T19:20:00.300Z,14.80
2023-05-14T19:22:27.759Z,10.40
2023-05-14T19:24:55.132Z,12.10
2023-05-14T19:27:24.215Z,12.80
2023-05-14T19:29:51.575Z,11.00
2023-05-14T19:32:18.902Z,12.20
2023-05-14T19:34:46.565Z,10.20
2023-05-14T19:37:14.108Z,10.20
2023-05-14T19:39:41.482Z,10.00
2023-05-14T19:42:09.048Z,10.60
2023-05-14T19:44:36.501Z,9.90
2023-05-14T19:47:04.292Z,11.60
2023-05-14T19:49:31.689Z,12.50
2023-05-14T19:51:59.096Z,9.90
2023-05-14T19:54:26.471Z,9.50
2023-05-14T19:56:54.740Z,8.90
2023-05-14T19:59:22.143Z,10.20
2023-05-14T20:01:49.470Z,8.90
2023-05-14T20:04:17.934Z,9.60
2023-05-14T20:06:45.677Z,10.40
2023-05-14T20:09:16.137Z,9.00
2023-05-14T20:11:43.676Z,9.30
2023-05-14T20:14:11.105Z,11.20
2023-05-14T20:16:38.685Z,9.50
2023-05-14T20:19:06.668Z,10.20
2023-05-14T20:21:34.051Z,8.40
2023-05-14T20:24:01.450Z,12.60
2023-05-14T20:26:28.839Z,13.10
2023-05-14T20:28:56.246Z,12.60
2023-05-14T20:31:23.770Z,9.60
2023-05-14T20:33:51.427Z,11.70
2023-05-14T20:36:19.213Z,13.00
2023-05-14T20:38:47.886Z,12.40
2023-05-14T20:41:15.330Z,11.40
2023-05-14T20:43:42.698Z,11.50
2023-05-14T20:46:10.362Z,14.20
2023-05-14T20:48:37.754Z,10.90
2023-05-14T20:51:06.654Z,14.10
2023-05-14T20:53:34.216Z,13.40
2023-05-14T20:56:01.651Z,11.90
2023-05-14T20:58:28.967Z,13.80
2023-05-14T21:00:57.552Z,11.70
2023-05-14T21:03:25.539Z,11.90
2023-05-14T21:05:54.564Z,14.60
2023-05-14T21:08:21.942Z,11.00
2023-05-14T21:10:49.375Z,12.10
2023-05-14T21:13:16.760Z,14.90
2023-05-14T21:15:44.482Z,13.00
2023-05-14T21:18:13.070Z,13.30
2023-05-14T21:20:40.963Z,15.80
2023-05-14T21:23:08.414Z,17.70
2023-05-14T21:25:35.780Z,13.20
2023-05-14T21:28:03.111Z,13.00
2023-05-14T21:30:30.749Z,13.70
2023-05-14T21:32:58.274Z,11.40
2023-05-14T21:35:26.206Z,12.20
2023-05-14T21:37:53.943Z,12.10
2023-05-14T21:40:21.344Z,12.50
2023-05-14T21:42:49.711Z,11.80
2023-05-14T21:45:17.131Z,14.90
2023-05-14T21:47:44.574Z,13.20
2023-05-14T21:50:13.133Z,16.40
2023-05-14T21:52:41.347Z,14.20
2023-05-14T21:55:09.270Z,12.50
2023-05-14T21:57:36.771Z,12.70
2023-05-14T22:00:11.284Z,14.60
2023-05-14T22:02:39.748Z,16.20
2023-05-14T22:05:07.684Z,13.80
2023-05-14T22:07:35.051Z,14.20
2023-05-14T22:10:02.425Z,16.70
2023-05-14T22:12:29.800Z,15.30
2023-05-14T22:14:57.210Z,13.00
2023-05-14T22:17:24.641Z,17.40
2023-05-14T22:19:52.134Z,14.40
2023-05-14T22:22:19.574Z,13.40
2023-05-14T22:24:47.016Z,15.60
2023-05-14T22:27:14.442Z,15.20
2023-05-14T22:29:41.927Z,14.70
2023-05-14T22:32:10.378Z,15.00
2023-05-14T22:34:37.736Z,17.10
2023-05-14T22:37:05.768Z,16.70
2023-05-14T22:39:33.125Z,17.00
2023-05-14T22:42:00.515Z,17.80
2023-05-14T22:44:29.757Z,16.40
2023-05-14T22:46:57.947Z,15.60
2023-05-14T22:49:25.544Z,13.20
2023-05-14T22:51:54.434Z,13.60
2023-05-14T22:54:21.913Z,11.90
2023-05-14T22:56:51.443Z,14.30
2023-05-14T22:59:19.044Z,15.70
2023-05-14T23:01:47.478Z,14.90
2023-05-14T23:04:14.820Z,13.70
2023-05-14T23:06:42.378Z,17.20
2023-05-14T23:09:09.906Z,13.60
2023-05-14T23:11:37.360Z,16.00
2023-05-14T23:14:04.821Z,14.80
2023-05-14T23:16:32.452Z,14.40
2023-05-14T23:18:59.944Z,14.70
2023-05-14T23:21:27.490Z,12.90
2023-05-14T23:23:54.849Z,14.20
2023-05-14T23:26:22.227Z,15.30
2023-05-14T23:28:49.651Z,14.90
2023-05-14T23:31:17.127Z,14.10
2023-05-14T23:33:44.784Z,14.60
2023-05-14T23:36:12.246Z,15.10
2023-05-14T23:38:40.844Z,14.60
2023-05-14T23:41:08.290Z,15.10
2023-05-14T23:43:36.337Z,15.20
2023-05-14T23:46:04.052Z,18.90
2023-05-14T23:48:31.850Z,13.80
2023-05-14T23:50:59.245Z,17.60
2023-05-14T23:53:26.649Z,18.80
2023-05-14T23:55:54.016Z,15.70
2023-05-14T23:58:21.384Z,15.60
